sensor_id;sensor_type;location;lat;lon;timestamp;pressure;altitude;pressure_sealevel;temperature;humidity
18790;BME280;9523;42.650;23.386;2022-07-21T00:00:12;94873.53;;;18.74;56.22
18790;BME280;9523;42.650;23.386;2022-07-21T00:02:39;94872.06;;;18.76;56.59
18790;BME280;9523;42.650;23.386;2022-07-21T00:05:07;94875.16;;;18.54;57.30
18790;BME280;9523;42.650;23.386;2022-07-21T00:07:35;94879.84;;;18.69;57.23
18790;BME280;9523;42.650;23.386;2022-07-21T00:10:05;94880.63;;;18.58;57.41
18790;BME280;9523;42.650;23.386;2022-07-21T00:12:32;94889.06;;;18.60;57.82
18790;BME280;9523;42.650;23.386;2022-07-21T00:14:59;94890.63;;;18.61;57.81
18790;BME280;9523;42.650;23.386;2022-07-21T00:17:25;94883.72;;;18.60;57.93
18790;BME280;9523;42.650;23.386;2022-07-21T00:19:52;94881.28;;;18.55;58.04
18790;BME280;9523;42.650;23.386;2022-07-21T00:22:19;94883.59;;;18.56;57.79
18790;BME280;9523;42.650;23.386;2022-07-21T00:24:46;94884.50;;;18.60;57.56
18790;BME280;9523;42.650;23.386;2022-07-21T00:27:14;94879.84;;;18.57;57.77
18790;BME280;9523;42.650;23.386;2022-07-21T00:29:41;94881.63;;;18.65;57.58
18790;BME280;9523;42.650;23.386;2022-07-21T00:32:11;94884.63;;;18.64;56.84
18790;BME280;9523;42.650;23.386;2022-07-21T00:34:38;94891.66;;;18.68;57.24
18790;BME280;9523;42.650;23.386;2022-07-21T00:37:08;94888.66;;;18.70;56.64
18790;BME280;9523;42.650;23.386;2022-07-21T00:39:34;94881.06;;;18.72;56.55
18790;BME280;9523;42.650;23.386;2022-07-21T00:42:02;94883.09;;;18.75;56.75
18790;BME280;9523;42.650;23.386;2022-07-21T00:44:30;94887.09;;;18.69;55.75
18790;BME280;9523;42.650;23.386;2022-07-21T00:46:57;94895.00;;;18.65;56.15
18790;BME280;9523;42.650;23.386;2022-07-21T00:49:29;94898.69;;;18.73;55.67
18790;BME280;9523;42.650;23.386;2022-07-21T00:51:56;94890.53;;;18.57;56.19
18790;BME280;9523;42.650;23.386;2022-07-21T00:54:23;94897.44;;;18.58;56.52
18790;BME280;9523;42.650;23.386;2022-07-21T00:56:55;94900.03;;;18.67;56.68
18790;BME280;9523;42.650;23.386;2022-07-21T00:59:22;94900.13;;;18.70;56.42
18790;BME280;9523;42.650;23.386;2022-07-21T01:01:50;94896.69;;;18.70;56.93
18790;BME280;9523;42.650;23.386;2022-07-21T01:04:17;94889.88;;;18.72;57.38
18790;BME280;9523;42.650;23.386;2022-07-21T01:06:44;94893.22;;;18.69;58.08
18790;BME280;9523;42.650;23.386;2022-07-21T01:09:11;94888.19;;;18.68;58.27
18790;BME280;9523;42.650;23.386;2022-07-21T01:11:38;94880.72;;;18.61;59.08
18790;BME280;9523;42.650;23.386;2022-07-21T01:14:06;94881.28;;;18.55;59.78
18790;BME280;9523;42.650;23.386;2022-07-21T01:16:33;94884.69;;;18.43;61.33
18790;BME280;9523;42.650;23.386;2022-07-21T01:19:02;94883.41;;;18.28;62.80
18790;BME280;9523;42.650;23.386;2022-07-21T01:21:32;94867.75;;;18.06;64.06
18790;BME280;9523;42.650;23.386;2022-07-21T01:24:01;94863.50;;;18.05;64.40
18790;BME280;9523;42.650;23.386;2022-07-21T01:26:28;94850.13;;;17.93;64.08
18790;BME280;9523;42.650;23.386;2022-07-21T01:28:56;94858.59;;;17.95;64.73
18790;BME280;9523;42.650;23.386;2022-07-21T01:31:23;94871.28;;;17.98;64.92
18790;BME280;9523;42.650;23.386;2022-07-21T01:33:50;94860.91;;;17.97;64.21
18790;BME280;9523;42.650;23.386;2022-07-21T01:36:17;94870.38;;;17.94;64.56
18790;BME280;9523;42.650;23.386;2022-07-21T01:38:45;94862.44;;;17.86;63.83
18790;BME280;9523;42.650;23.386;2022-07-21T01:41:30;94830.66;;;17.72;64.12
18790;BME280;9523;42.650;23.386;2022-07-21T01:44:00;94858.00;;;17.90;63.54
18790;BME280;9523;42.650;23.386;2022-07-21T01:46:29;94855.44;;;17.93;63.91
18790;BME280;9523;42.650;23.386;2022-07-21T01:48:56;94858.00;;;17.90;63.47
18790;BME280;9523;42.650;23.386;2022-07-21T01:51:24;94860.13;;;17.96;63.84
18790;BME280;9523;42.650;23.386;2022-07-21T01:53:52;94858.84;;;17.81;63.95
18790;BME280;9523;42.650;23.386;2022-07-21T01:56:20;94860.75;;;17.81;64.08
18790;BME280;9523;42.650;23.386;2022-07-21T01:58:49;94857.16;;;17.77;63.87
18790;BME280;9523;42.650;23.386;2022-07-21T02:01:16;94857.88;;;17.65;64.34
18790;BME280;9523;42.650;23.386;2022-07-21T02:03:43;94859.34;;;17.54;64.99
18790;BME280;9523;42.650;23.386;2022-07-21T02:06:11;94840.91;;;17.41;65.81
18790;BME280;9523;42.650;23.386;2022-07-21T02:08:38;94849.84;;;17.45;66.41
18790;BME280;9523;42.650;23.386;2022-07-21T02:11:06;94842.19;;;17.43;66.41
18790;BME280;9523;42.650;23.386;2022-07-21T02:13:33;94852.84;;;17.43;67.32
18790;BME280;9523;42.650;23.386;2022-07-21T02:16:01;94854.25;;;17.41;67.29
18790;BME280;9523;42.650;23.386;2022-07-21T02:18:28;94854.13;;;17.37;67.34
18790;BME280;9523;42.650;23.386;2022-07-21T02:20:54;94853.22;;;17.33;68.57
18790;BME280;9523;42.650;23.386;2022-07-21T02:23:24;94851.00;;;17.35;69.18
18790;BME280;9523;42.650;23.386;2022-07-21T02:25:51;94857.50;;;17.25;68.81
18790;BME280;9523;42.650;23.386;2022-07-21T02:28:20;94861.38;;;17.28;68.39
18790;BME280;9523;42.650;23.386;2022-07-21T02:30:48;94849.19;;;17.27;68.62
18790;BME280;9523;42.650;23.386;2022-07-21T02:33:15;94861.56;;;17.31;68.97
18790;BME280;9523;42.650;23.386;2022-07-21T02:35:42;94857.13;;;17.35;69.92
18790;BME280;9523;42.650;23.386;2022-07-21T02:38:12;94853.34;;;17.36;69.62
18790;BME280;9523;42.650;23.386;2022-07-21T02:40:39;94851.16;;;17.38;69.34
18790;BME280;9523;42.650;23.386;2022-07-21T02:43:10;94850.50;;;17.42;69.44
18790;BME280;9523;42.650;23.386;2022-07-21T02:45:38;94842.69;;;17.36;69.73
18790;BME280;9523;42.650;23.386;2022-07-21T02:48:09;94839.56;;;17.34;70.74
18790;BME280;9523;42.650;23.386;2022-07-21T02:50:37;94841.75;;;17.32;71.02
18790;BME280;9523;42.650;23.386;2022-07-21T02:53:07;94847.75;;;17.29;71.51
18790;BME280;9523;42.650;23.386;2022-07-21T02:55:35;94850.72;;;17.28;72.40
18790;BME280;9523;42.650;23.386;2022-07-21T02:58:08;94850.88;;;17.31;72.21
18790;BME280;9523;42.650;23.386;2022-07-21T03:00:36;94849.50;;;17.25;72.47
18790;BME280;9523;42.650;23.386;2022-07-21T03:03:05;94849.69;;;17.20;70.61
18790;BME280;9523;42.650;23.386;2022-07-21T03:05:33;94843.44;;;17.16;72.52
18790;BME280;9523;42.650;23.386;2022-07-21T03:08:01;94855.00;;;17.20;72.81
18790;BME280;9523;42.650;23.386;2022-07-21T03:10:28;94856.06;;;17.28;72.85
18790;BME280;9523;42.650;23.386;2022-07-21T03:12:56;94860.94;;;17.26;72.38
18790;BME280;9523;42.650;23.386;2022-07-21T03:15:23;94856.72;;;17.25;72.66
18790;BME280;9523;42.650;23.386;2022-07-21T03:17:51;94863.00;;;17.20;72.23
18790;BME280;9523;42.650;23.386;2022-07-21T03:20:19;94862.38;;;17.23;71.53
18790;BME280;9523;42.650;23.386;2022-07-21T03:22:49;94859.72;;;17.23;72.51
18790;BME280;9523;42.650;23.386;2022-07-21T03:25:17;94856.06;;;17.28;72.75
18790;BME280;9523;42.650;23.386;2022-07-21T03:27:44;94861.56;;;17.31;70.58
18790;BME280;9523;42.650;23.386;2022-07-21T03:30:12;94863.75;;;17.29;72.02
18790;BME280;9523;42.650;23.386;2022-07-21T03:32:39;94868.16;;;17.25;70.55
18790;BME280;9523;42.650;23.386;2022-07-21T03:35:08;94863.66;;;17.17;69.84
18790;BME280;9523;42.650;23.386;2022-07-21T03:37:42;94855.78;;;17.21;71.85
18790;BME280;9523;42.650;23.386;2022-07-21T03:40:13;94870.69;;;17.22;70.49
18790;BME280;9523;42.650;23.386;2022-07-21T03:42:40;94870.66;;;17.30;70.64
18790;BME280;9523;42.650;23.386;2022-07-21T03:45:09;94873.75;;;17.32;69.59
18790;BME280;9523;42.650;23.386;2022-07-21T03:47:36;94867.31;;;17.33;68.60
18790;BME280;9523;42.650;23.386;2022-07-21T03:50:05;94869.03;;;17.38;69.13
18790;BME280;9523;42.650;23.386;2022-07-21T03:52:32;94875.50;;;17.28;69.14
18790;BME280;9523;42.650;23.386;2022-07-21T03:55:00;94870.97;;;17.29;70.00
18790;BME280;9523;42.650;23.386;2022-07-21T03:57:39;94877.38;;;17.28;70.59
18790;BME280;9523;42.650;23.386;2022-07-21T04:00:10;94855.66;;;17.17;69.86
18790;BME280;9523;42.650;23.386;2022-07-21T04:02:38;94870.09;;;17.16;71.52
18790;BME280;9523;42.650;23.386;2022-07-21T04:05:08;94869.47;;;17.19;71.48
18790;BME280;9523;42.650;23.386;2022-07-21T04:07:36;94876.63;;;17.27;72.63
18790;BME280;9523;42.650;23.386;2022-07-21T04:10:05;94862.56;;;17.18;72.44
18790;BME280;9523;42.650;23.386;2022-07-21T04:12:32;94879.22;;;17.36;73.57
18790;BME280;9523;42.650;23.386;2022-07-21T04:14:58;94855.00;;;17.20;72.86
18790;BME280;9523;42.650;23.386;2022-07-21T04:17:25;94880.47;;;17.38;73.32
18790;BME280;9523;42.650;23.386;2022-07-21T04:19:52;94882.88;;;17.31;74.96
18790;BME280;9523;42.650;23.386;2022-07-21T04:22:25;94873.75;;;17.32;74.88
18790;BME280;9523;42.650;23.386;2022-07-21T04:24:52;94875.19;;;17.30;75.38
18790;BME280;9523;42.650;23.386;2022-07-21T04:27:21;94881.31;;;17.30;74.52
18790;BME280;9523;42.650;23.386;2022-07-21T04:29:47;94885.22;;;17.33;73.73
18790;BME280;9523;42.650;23.386;2022-07-21T04:32:15;94885.34;;;17.36;74.89
18790;BME280;9523;42.650;23.386;2022-07-21T04:34:41;94888.44;;;17.47;75.60
18790;BME280;9523;42.650;23.386;2022-07-21T04:37:08;94882.75;;;17.49;77.09
18790;BME280;9523;42.650;23.386;2022-07-21T04:39:35;94878.00;;;17.33;75.42
18790;BME280;9523;42.650;23.386;2022-07-21T04:42:06;94890.97;;;17.44;74.43
18790;BME280;9523;42.650;23.386;2022-07-21T04:44:34;94890.09;;;17.52;77.90
18790;BME280;9523;42.650;23.386;2022-07-21T04:47:01;94887.13;;;17.53;78.24
18790;BME280;9523;42.650;23.386;2022-07-21T04:49:28;94890.56;;;17.54;78.12
18790;BME280;9523;42.650;23.386;2022-07-21T04:51:55;94892.47;;;17.53;77.50
18790;BME280;9523;42.650;23.386;2022-07-21T04:54:23;94891.13;;;17.68;75.47
18790;BME280;9523;42.650;23.386;2022-07-21T04:56:50;94904.75;;;17.75;75.04
18790;BME280;9523;42.650;23.386;2022-07-21T04:59:17;94898.56;;;17.83;74.20
18790;BME280;9523;42.650;23.386;2022-07-21T05:01:45;94897.78;;;18.03;71.42
18790;BME280;9523;42.650;23.386;2022-07-21T05:04:12;94904.59;;;18.13;71.07
18790;BME280;9523;42.650;23.386;2022-07-21T05:06:39;94901.38;;;18.19;70.97
18790;BME280;9523;42.650;23.386;2022-07-21T05:09:08;94910.66;;;18.22;71.15
18790;BME280;9523;42.650;23.386;2022-07-21T05:11:38;94901.84;;;18.21;72.57
18790;BME280;9523;42.650;23.386;2022-07-21T05:14:05;94895.66;;;18.29;71.73
18790;BME280;9523;42.650;23.386;2022-07-21T05:16:32;94896.56;;;18.34;72.34
18790;BME280;9523;42.650;23.386;2022-07-21T05:19:01;94887.75;;;18.33;71.51
18790;BME280;9523;42.650;23.386;2022-07-21T05:21:27;94890.91;;;18.47;71.56
18790;BME280;9523;42.650;23.386;2022-07-21T05:23:54;94895.09;;;18.57;70.41
18790;BME280;9523;42.650;23.386;2022-07-21T05:26:22;94897.50;;;18.50;69.26
18790;BME280;9523;42.650;23.386;2022-07-21T05:28:48;94890.91;;;18.47;70.09
18790;BME280;9523;42.650;23.386;2022-07-21T05:31:15;94899.53;;;18.53;69.37
18790;BME280;9523;42.650;23.386;2022-07-21T05:33:42;94907.56;;;18.65;69.05
18790;BME280;9523;42.650;23.386;2022-07-21T05:36:10;94902.03;;;18.70;69.15
18790;BME280;9523;42.650;23.386;2022-07-21T05:38:38;94903.25;;;18.72;68.65
18790;BME280;9523;42.650;23.386;2022-07-21T05:41:05;94902.03;;;18.82;68.41
18790;BME280;9523;42.650;23.386;2022-07-21T05:43:32;94905.63;;;18.86;67.79
18790;BME280;9523;42.650;23.386;2022-07-21T05:45:59;94899.50;;;18.98;67.28
18790;BME280;9523;42.650;23.386;2022-07-21T05:48:26;94898.50;;;19.02;66.88
18790;BME280;9523;42.650;23.386;2022-07-21T05:50:53;94897.03;;;19.05;65.88
18790;BME280;9523;42.650;23.386;2022-07-21T05:53:22;94905.63;;;19.10;64.38
18790;BME280;9523;42.650;23.386;2022-07-21T05:55:52;94906.06;;;19.24;63.82
18790;BME280;9523;42.650;23.386;2022-07-21T05:58:19;94907.63;;;19.38;65.38
18790;BME280;9523;42.650;23.386;2022-07-21T06:00:49;94901.59;;;19.41;63.03
18790;BME280;9523;42.650;23.386;2022-07-21T06:03:33;94893.13;;;19.51;65.11
18790;BME280;9523;42.650;23.386;2022-07-21T06:06:00;94902.50;;;19.57;63.49
18790;BME280;9523;42.650;23.386;2022-07-21T06:08:29;94887.53;;;19.68;66.86
18790;BME280;9523;42.650;23.386;2022-07-21T06:10:56;94892.88;;;19.80;68.91
18790;BME280;9523;42.650;23.386;2022-07-21T06:13:23;94877.50;;;19.77;65.07
18790;BME280;9523;42.650;23.386;2022-07-21T06:15:53;94893.81;;;20.00;67.15
18790;BME280;9523;42.650;23.386;2022-07-21T06:18:22;94895.25;;;20.09;65.86
18790;BME280;9523;42.650;23.386;2022-07-21T06:20:49;94887.81;;;20.18;66.13
18790;BME280;9523;42.650;23.386;2022-07-21T06:23:16;94890.59;;;20.34;63.60
18790;BME280;9523;42.650;23.386;2022-07-21T06:25:45;94891.03;;;20.36;61.38
18790;BME280;9523;42.650;23.386;2022-07-21T06:28:12;94848.50;;;20.23;62.10
18790;BME280;9523;42.650;23.386;2022-07-21T06:30:41;94884.59;;;20.53;62.89
18790;BME280;9523;42.650;23.386;2022-07-21T06:33:08;94877.91;;;20.47;61.05
18790;BME280;9523;42.650;23.386;2022-07-21T06:35:35;94884.59;;;20.69;61.52
18790;BME280;9523;42.650;23.386;2022-07-21T06:38:03;94875.88;;;20.72;61.54
18790;BME280;9523;42.650;23.386;2022-07-21T06:40:32;94888.84;;;20.85;61.60
18790;BME280;9523;42.650;23.386;2022-07-21T06:43:01;94893.28;;;20.93;59.85
18790;BME280;9523;42.650;23.386;2022-07-21T06:45:28;94880.44;;;21.02;60.21
18790;BME280;9523;42.650;23.386;2022-07-21T06:48:02;94884.78;;;21.07;59.32
18790;BME280;9523;42.650;23.386;2022-07-21T06:50:29;94880.84;;;21.17;60.47
18790;BME280;9523;42.650;23.386;2022-07-21T06:52:56;94882.31;;;21.30;60.39
18790;BME280;9523;42.650;23.386;2022-07-21T06:55:23;94886.00;;;21.41;58.29
18790;BME280;9523;42.650;23.386;2022-07-21T06:57:50;94879.59;;;21.45;55.69
18790;BME280;9523;42.650;23.386;2022-07-21T07:00:20;94876.00;;;21.57;55.54
18790;BME280;9523;42.650;23.386;2022-07-21T07:02:51;94866.97;;;21.65;55.67
18790;BME280;9523;42.650;23.386;2022-07-21T07:05:21;94873.75;;;21.78;55.40
18790;BME280;9523;42.650;23.386;2022-07-21T07:07:48;94866.41;;;21.75;53.96
18790;BME280;9523;42.650;23.386;2022-07-21T07:10:15;94831.84;;;21.74;53.69
18790;BME280;9523;42.650;23.386;2022-07-21T07:12:42;94859.53;;;22.13;53.45
18790;BME280;9523;42.650;23.386;2022-07-21T07:15:09;94864.53;;;22.33;53.25
18790;BME280;9523;42.650;23.386;2022-07-21T07:17:39;94864.31;;;22.42;51.96
18790;BME280;9523;42.650;23.386;2022-07-21T07:20:07;94859.59;;;22.58;50.97
18790;BME280;9523;42.650;23.386;2022-07-21T07:22:34;94866.13;;;22.76;50.03
18790;BME280;9523;42.650;23.386;2022-07-21T07:25:01;94827.41;;;22.62;50.28
18790;BME280;9523;42.650;23.386;2022-07-21T07:27:28;94866.50;;;23.01;49.44
18790;BME280;9523;42.650;23.386;2022-07-21T07:29:58;94856.75;;;23.16;48.81
18790;BME280;9523;42.650;23.386;2022-07-21T07:32:25;94855.75;;;23.24;47.96
18790;BME280;9523;42.650;23.386;2022-07-21T07:34:53;94856.75;;;23.42;47.84
18790;BME280;9523;42.650;23.386;2022-07-21T07:37:20;94847.72;;;23.54;47.79
18790;BME280;9523;42.650;23.386;2022-07-21T07:39:50;94850.34;;;23.76;47.18
18790;BME280;9523;42.650;23.386;2022-07-21T07:42:17;94842.41;;;23.87;45.57
18790;BME280;9523;42.650;23.386;2022-07-21T07:44:44;94846.44;;;24.00;45.10
18790;BME280;9523;42.650;23.386;2022-07-21T07:47:11;94852.09;;;24.25;44.67
18790;BME280;9523;42.650;23.386;2022-07-21T07:49:38;94851.50;;;24.39;44.24
18790;BME280;9523;42.650;23.386;2022-07-21T07:52:10;94848.19;;;24.52;44.13
18790;BME280;9523;42.650;23.386;2022-07-21T07:54:37;94832.16;;;24.70;43.78
18790;BME280;9523;42.650;23.386;2022-07-21T07:57:04;94836.50;;;24.82;43.53
18790;BME280;9523;42.650;23.386;2022-07-21T07:59:30;94839.72;;;24.94;43.79
18790;BME280;9523;42.650;23.386;2022-07-21T08:01:57;94840.59;;;25.09;43.38
18790;BME280;9523;42.650;23.386;2022-07-21T08:04:24;94831.41;;;25.17;42.23
18790;BME280;9523;42.650;23.386;2022-07-21T08:06:51;94801.38;;;25.22;41.29
18790;BME280;9523;42.650;23.386;2022-07-21T08:09:19;94825.16;;;25.60;41.06
18790;BME280;9523;42.650;23.386;2022-07-21T08:11:47;94813.63;;;25.63;41.99
18790;BME280;9523;42.650;23.386;2022-07-21T08:14:14;94819.44;;;25.73;41.36
18790;BME280;9523;42.650;23.386;2022-07-21T08:16:42;94825.72;;;25.94;41.21
18790;BME280;9523;42.650;23.386;2022-07-21T08:19:09;94803.31;;;25.94;40.45
18790;BME280;9523;42.650;23.386;2022-07-21T08:21:36;94823.47;;;26.07;39.71
18790;BME280;9523;42.650;23.386;2022-07-21T08:24:04;94795.25;;;26.08;40.07
18790;BME280;9523;42.650;23.386;2022-07-21T08:26:32;94813.13;;;26.34;40.33
18790;BME280;9523;42.650;23.386;2022-07-21T08:28:59;94781.03;;;26.29;39.78
18790;BME280;9523;42.650;23.386;2022-07-21T08:31:26;94808.94;;;26.61;40.00
18790;BME280;9523;42.650;23.386;2022-07-21T08:33:53;94807.00;;;26.69;38.70
18790;BME280;9523;42.650;23.386;2022-07-21T08:36:20;94816.72;;;26.84;38.42
18790;BME280;9523;42.650;23.386;2022-07-21T08:38:47;94817.09;;;26.93;38.99
18790;BME280;9523;42.650;23.386;2022-07-21T08:41:14;94811.28;;;26.87;38.38
18790;BME280;9523;42.650;23.386;2022-07-21T08:43:43;94813.63;;;26.99;37.81
18790;BME280;9523;42.650;23.386;2022-07-21T08:46:12;94817.50;;;27.09;37.73
18790;BME280;9523;42.650;23.386;2022-07-21T08:48:39;94804.72;;;27.20;38.20
18790;BME280;9523;42.650;23.386;2022-07-21T08:51:06;94803.16;;;27.37;38.46
18790;BME280;9523;42.650;23.386;2022-07-21T08:53:33;94809.72;;;27.57;37.94
18790;BME280;9523;42.650;23.386;2022-07-21T08:56:00;94798.47;;;27.62;37.55
18790;BME280;9523;42.650;23.386;2022-07-21T08:58:27;94792.66;;;27.64;36.15
18790;BME280;9523;42.650;23.386;2022-07-21T09:00:55;94797.97;;;27.92;36.26
18790;BME280;9523;42.650;23.386;2022-07-21T09:03:24;94790.72;;;27.68;35.40
18790;BME280;9523;42.650;23.386;2022-07-21T09:06:03;94787.94;;;27.85;35.63
18790;BME280;9523;42.650;23.386;2022-07-21T09:08:37;94775.81;;;28.15;35.71
18790;BME280;9523;42.650;23.386;2022-07-21T09:11:15;94774.91;;;28.42;35.39
18790;BME280;9523;42.650;23.386;2022-07-21T09:13:44;94779.38;;;28.67;35.76
18790;BME280;9523;42.650;23.386;2022-07-21T09:16:12;94777.78;;;28.76;34.26
18790;BME280;9523;42.650;23.386;2022-07-21T09:18:49;94776.25;;;28.72;33.88
18790;BME280;9523;42.650;23.386;2022-07-21T09:21:17;94778.56;;;28.77;33.90
18790;BME280;9523;42.650;23.386;2022-07-21T09:23:45;94775.72;;;28.91;33.21
18790;BME280;9523;42.650;23.386;2022-07-21T09:26:11;94763.09;;;29.15;33.47
18790;BME280;9523;42.650;23.386;2022-07-21T09:28:41;94752.19;;;29.22;33.12
18790;BME280;9523;42.650;23.386;2022-07-21T09:31:10;94763.19;;;29.82;31.86
18790;BME280;9523;42.650;23.386;2022-07-21T09:33:40;94756.44;;;30.55;31.65
18790;BME280;9523;42.650;23.386;2022-07-21T09:36:09;94775.69;;;31.17;30.05
18790;BME280;9523;42.650;23.386;2022-07-21T09:38:38;94771.25;;;31.70;29.48
18790;BME280;9523;42.650;23.386;2022-07-21T09:41:12;94760.03;;;32.59;27.95
18790;BME280;9523;42.650;23.386;2022-07-21T09:43:41;94763.16;;;33.26;27.06
18790;BME280;9523;42.650;23.386;2022-07-21T09:46:14;94759.56;;;33.58;25.85
18790;BME280;9523;42.650;23.386;2022-07-21T09:48:44;94758.16;;;32.56;26.64
18790;BME280;9523;42.650;23.386;2022-07-21T09:51:23;94758.13;;;33.70;25.81
18790;BME280;9523;42.650;23.386;2022-07-21T09:53:52;94762.59;;;34.84;24.45
18790;BME280;9523;42.650;23.386;2022-07-21T09:56:20;94756.66;;;36.02;24.25
18790;BME280;9523;42.650;23.386;2022-07-21T09:58:52;94751.63;;;36.93;22.64
18790;BME280;9523;42.650;23.386;2022-07-21T10:01:19;94755.13;;;37.60;22.46
18790;BME280;9523;42.650;23.386;2022-07-21T10:03:49;94752.00;;;38.40;21.51
18790;BME280;9523;42.650;23.386;2022-07-21T10:06:17;94743.78;;;38.64;21.03
18790;BME280;9523;42.650;23.386;2022-07-21T10:08:45;94748.09;;;38.05;20.91
18790;BME280;9523;42.650;23.386;2022-07-21T10:11:13;94739.66;;;37.63;20.50
18790;BME280;9523;42.650;23.386;2022-07-21T10:13:40;94736.44;;;37.92;20.26
18790;BME280;9523;42.650;23.386;2022-07-21T10:16:09;94745.41;;;38.29;20.53
18790;BME280;9523;42.650;23.386;2022-07-21T10:18:53;94746.09;;;37.60;20.88
18790;BME280;9523;42.650;23.386;2022-07-21T10:21:30;94741.03;;;37.86;19.70
18790;BME280;9523;42.650;23.386;2022-07-21T10:24:02;94734.94;;;37.82;21.53
18790;BME280;9523;42.650;23.386;2022-07-21T10:26:30;94738.66;;;38.48;20.54
18790;BME280;9523;42.650;23.386;2022-07-21T10:28:57;94735.19;;;38.62;20.48
18790;BME280;9523;42.650;23.386;2022-07-21T10:31:25;94721.34;;;39.13;19.84
18790;BME280;9523;42.650;23.386;2022-07-21T10:33:59;94722.13;;;39.37;19.58
18790;BME280;9523;42.650;23.386;2022-07-21T10:36:42;94726.78;;;39.84;18.76
18790;BME280;9523;42.650;23.386;2022-07-21T10:39:20;94725.94;;;40.52;18.82
18790;BME280;9523;42.650;23.386;2022-07-21T10:41:49;94685.47;;;39.13;18.97
18790;BME280;9523;42.650;23.386;2022-07-21T10:44:42;94716.38;;;39.65;19.54
18790;BME280;9523;42.650;23.386;2022-07-21T10:47:11;94710.25;;;39.61;19.42
18790;BME280;9523;42.650;23.386;2022-07-21T10:49:47;94715.16;;;39.18;19.71
18790;BME280;9523;42.650;23.386;2022-07-21T10:55:27;94704.19;;;37.56;19.57
18790;BME280;9523;42.650;23.386;2022-07-21T10:58:15;94693.84;;;36.35;20.66
18790;BME280;9523;42.650;23.386;2022-07-21T11:00:50;94696.31;;;36.91;20.44
18790;BME280;9523;42.650;23.386;2022-07-21T11:03:26;94697.84;;;36.12;20.93
18790;BME280;9523;42.650;23.386;2022-07-21T11:06:21;94692.97;;;36.87;21.55
18790;BME280;9523;42.650;23.386;2022-07-21T11:08:52;94690.53;;;36.98;21.91
18790;BME280;9523;42.650;23.386;2022-07-21T11:11:24;94684.16;;;37.65;21.19
18790;BME280;9523;42.650;23.386;2022-07-21T11:14:06;94675.31;;;38.30;20.25
18790;BME280;9523;42.650;23.386;2022-07-21T11:17:10;94673.88;;;38.43;20.40
18790;BME280;9523;42.650;23.386;2022-07-21T11:19:42;94669.03;;;37.51;20.59
18790;BME280;9523;42.650;23.386;2022-07-21T11:22:14;94664.72;;;37.32;21.83
18790;BME280;9523;42.650;23.386;2022-07-21T11:24:43;94677.66;;;38.13;21.03
18790;BME280;9523;42.650;23.386;2022-07-21T11:27:12;94660.44;;;38.69;20.38
18790;BME280;9523;42.650;23.386;2022-07-21T11:29:41;94677.94;;;38.90;19.25
18790;BME280;9523;42.650;23.386;2022-07-21T11:32:09;94683.72;;;35.35;22.23
18790;BME280;9523;42.650;23.386;2022-07-21T11:34:42;94676.34;;;34.51;22.44
18790;BME280;9523;42.650;23.386;2022-07-21T11:37:10;94662.41;;;34.71;23.02
18790;BME280;9523;42.650;23.386;2022-07-21T11:39:40;94663.50;;;35.86;22.01
18790;BME280;9523;42.650;23.386;2022-07-21T11:42:09;94668.03;;;35.02;22.10
18790;BME280;9523;42.650;23.386;2022-07-21T11:44:36;94666.69;;;34.47;22.26
18790;BME280;9523;42.650;23.386;2022-07-21T11:47:05;94660.69;;;35.33;21.82
18790;BME280;9523;42.650;23.386;2022-07-21T11:49:32;94670.25;;;36.15;21.96
18790;BME280;9523;42.650;23.386;2022-07-21T11:52:01;94653.97;;;36.79;21.19
18790;BME280;9523;42.650;23.386;2022-07-21T11:54:31;94660.16;;;37.20;21.57
18790;BME280;9523;42.650;23.386;2022-07-21T11:57:02;94650.97;;;37.04;21.15
18790;BME280;9523;42.650;23.386;2022-07-21T11:59:30;94638.75;;;36.38;21.21
18790;BME280;9523;42.650;23.386;2022-07-21T12:02:00;94630.00;;;36.70;21.99
18790;BME280;9523;42.650;23.386;2022-07-21T12:04:35;94645.00;;;36.97;21.96
18790;BME280;9523;42.650;23.386;2022-07-21T12:07:05;94625.09;;;36.65;21.26
18790;BME280;9523;42.650;23.386;2022-07-21T12:09:33;94633.41;;;36.35;22.17
18790;BME280;9523;42.650;23.386;2022-07-21T12:12:01;94646.63;;;36.18;22.72
18790;BME280;9523;42.650;23.386;2022-07-21T12:17:51;94635.03;;;34.33;23.10
18790;BME280;9523;42.650;23.386;2022-07-21T12:20:25;94646.06;;;34.04;23.29
18790;BME280;9523;42.650;23.386;2022-07-21T12:22:53;94627.06;;;34.26;24.52
18790;BME280;9523;42.650;23.386;2022-07-21T12:25:30;94635.28;;;34.26;23.50
18790;BME280;9523;42.650;23.386;2022-07-21T12:27:59;94629.34;;;34.02;24.44
18790;BME280;9523;42.650;23.386;2022-07-21T12:30:33;94624.09;;;34.08;24.11
18790;BME280;9523;42.650;23.386;2022-07-21T12:33:06;94621.50;;;33.63;24.89
18790;BME280;9523;42.650;23.386;2022-07-21T12:35:35;94618.41;;;33.48;24.83
18790;BME280;9523;42.650;23.386;2022-07-21T12:38:08;94628.56;;;33.35;24.67
18790;BME280;9523;42.650;23.386;2022-07-21T12:40:38;94615.19;;;33.66;24.91
18790;BME280;9523;42.650;23.386;2022-07-21T12:43:14;94623.72;;;33.80;25.40
18790;BME280;9523;42.650;23.386;2022-07-21T12:45:53;94609.50;;;33.73;24.78
18790;BME280;9523;42.650;23.386;2022-07-21T12:48:22;94618.50;;;33.98;25.24
18790;BME280;9523;42.650;23.386;2022-07-21T12:51:11;94606.47;;;33.42;24.96
18790;BME280;9523;42.650;23.386;2022-07-21T12:53:42;94616.31;;;33.39;25.29
18790;BME280;9523;42.650;23.386;2022-07-21T12:56:11;94612.97;;;32.58;25.95
18790;BME280;9523;42.650;23.386;2022-07-21T12:58:40;94603.69;;;33.00;25.79
18790;BME280;9523;42.650;23.386;2022-07-21T13:01:07;94618.81;;;33.34;25.61
18790;BME280;9523;42.650;23.386;2022-07-21T13:03:34;94606.75;;;33.02;26.57
18790;BME280;9523;42.650;23.386;2022-07-21T13:06:04;94602.00;;;33.48;26.19
18790;BME280;9523;42.650;23.386;2022-07-21T13:08:32;94597.19;;;33.52;26.05
18790;BME280;9523;42.650;23.386;2022-07-21T13:10:59;94576.66;;;33.73;25.30
18790;BME280;9523;42.650;23.386;2022-07-21T13:13:27;94601.31;;;33.85;25.56
18790;BME280;9523;42.650;23.386;2022-07-21T13:15:55;94587.66;;;33.57;25.90